Time;durP1;ratioP1;P1;durP2;ratioP2;P2;SDS_P1;SDS_P2;PMS_P1;PMS_P2;Temp;Humidity;BMP_temperature;BMP_pressure;BME280_temperature;BME280_humidity;BME280_pressure;Samples;Min_cycle;Max_cycle;Signal;HPM_P1;HPM_P2
2022/10/29 00:01:26;;;;;;;4.13;3.33;;;11.80;99.90;;;;;;5072453;28;20484;-49
2022/10/29 00:03:52;;;;;;;8.10;2.97;;;11.80;99.90;;;;;;5072070;28;20443;-49
2022/10/29 00:06:19;;;;;;;6.53;2.27;;;11.90;99.90;;;;;;5072091;28;20443;-49
2022/10/29 00:08:46;;;;;;;4.33;2.37;;;11.80;99.90;;;;;;5072556;28;20439;-49
2022/10/29 00:11:17;;;;;;;3.20;1.40;;;11.80;99.90;;;;;;5072390;28;20469;-49
2022/10/29 00:13:44;;;;;;;4.17;2.00;;;11.80;99.90;;;;;;5071544;28;20537;-49
2022/10/29 00:16:13;;;;;;;6.30;2.17;;;11.80;99.90;;;;;;5072135;28;20459;-50
2022/10/29 00:18:40;;;;;;;5.93;2.20;;;11.80;99.90;;;;;;5071940;28;20470;-50
2022/10/29 00:21:10;;;;;;;5.50;2.03;;;11.90;99.90;;;;;;5071738;28;20462;-49
2022/10/29 00:23:37;;;;;;;5.63;2.20;;;11.90;99.90;;;;;;5071674;28;20796;-49
2022/10/29 00:26:04;;;;;;;5.60;2.20;;;11.70;99.90;;;;;;5071668;28;21007;-49
2022/10/29 00:28:33;;;;;;;4.90;2.57;;;11.20;99.90;;;;;;5071848;28;20473;-49
2022/10/29 00:31:03;;;;;;;6.13;2.33;;;11.20;99.90;;;;;;5071713;28;20541;-49
2022/10/29 00:33:29;;;;;;;5.93;2.37;;;11.50;99.90;;;;;;5071567;28;20464;-49
2022/10/29 00:35:58;;;;;;;3.83;2.10;;;11.60;99.90;;;;;;5071815;28;20445;-50
2022/10/29 00:38:25;;;;;;;7.93;2.20;;;11.50;99.90;;;;;;5071469;28;20902;-47
2022/10/29 00:40:52;;;;;;;3.20;2.00;;;11.50;99.90;;;;;;5071632;28;20539;-47
2022/10/29 00:43:20;;;;;;;5.90;2.67;;;11.60;99.90;;;;;;5071473;28;20434;-49
2022/10/29 00:45:52;;;;;;;8.30;2.23;;;11.60;99.90;;;;;;5071779;28;20532;-46
2022/10/29 00:48:20;;;;;;;4.40;3.00;;;11.70;99.90;;;;;;5071545;28;20531;-48
2022/10/29 00:50:48;;;;;;;6.17;2.63;;;11.90;99.90;;;;;;5071158;28;20822;-47
2022/10/29 00:53:18;;;;;;;9.67;2.73;;;11.90;99.90;;;;;;5071486;28;20532;-47
2022/10/29 00:55:45;;;;;;;6.67;2.80;;;11.90;99.90;;;;;;5071793;28;20442;-46
2022/10/29 00:58:12;;;;;;;12.10;5.27;;;11.80;99.90;;;;;;5071490;28;20446;-48
2022/10/29 01:00:39;;;;;;;8.07;4.10;;;11.90;99.90;;;;;;5071675;28;20573;-46
2022/10/29 01:03:07;;;;;;;7.40;5.20;;;11.90;99.90;;;;;;5071211;28;20442;-48
2022/10/29 01:05:35;;;;;;;4.57;2.70;;;11.60;99.90;;;;;;5071715;28;20443;-48
2022/10/29 01:08:02;;;;;;;5.57;2.90;;;11.40;99.90;;;;;;5071458;28;20443;-47
2022/10/29 01:10:36;;;;;;;8.93;2.57;;;11.50;99.90;;;;;;5071153;28;20448;-49
2022/10/29 01:13:16;;;;;;;6.87;2.60;;;11.40;99.90;;;;;;5071065;28;20855;-47
2022/10/29 01:15:52;;;;;;;9.40;3.57;;;11.20;99.90;;;;;;5071270;28;20537;-50
2022/10/29 01:18:24;;;;;;;10.90;2.50;;;11.40;99.90;;;;;;5071498;28;20536;-48
2022/10/29 01:21:32;;;;;;;6.40;2.53;;;11.60;99.90;;;;;;5071377;28;20851;-47
2022/10/29 01:24:36;;;;;;;6.07;2.40;;;11.70;99.90;;;;;;5070940;28;21004;-48
2022/10/29 01:27:31;;;;;;;7.17;3.40;;;10.80;99.90;;;;;;5074205;28;20944;-46
2022/10/29 01:30:07;;;;;;;5.07;2.87;;;10.40;99.90;;;;;;5075729;28;20528;-46
2022/10/29 01:32:44;;;;;;;4.23;2.40;;;10.30;99.90;;;;;;5075237;28;20531;-47
2022/10/29 01:35:18;;;;;;;7.37;2.77;;;10.70;99.90;;;;;;5075263;28;20446;-46
2022/10/29 01:37:54;;;;;;;7.83;3.63;;;11.10;99.90;;;;;;5075213;28;20682;-46
2022/10/29 01:40:25;;;;;;;3.87;3.00;;;10.90;99.90;;;;;;5075121;28;20480;-47
2022/10/29 01:42:56;;;;;;;7.93;2.93;;;10.70;99.90;;;;;;5074775;28;20528;-46
2022/10/29 01:45:28;;;;;;;4.03;3.13;;;10.30;99.90;;;;;;5075300;28;20444;-49
2022/10/29 01:48:00;;;;;;;4.60;2.63;;;10.20;99.90;;;;;;5075113;28;20532;-46
2022/10/29 01:50:28;;;;;;;11.03;2.77;;;10.60;99.90;;;;;;5074168;28;20466;-48
2022/10/29 01:52:56;;;;;;;6.77;2.50;;;10.50;99.90;;;;;;5075962;28;20957;-48
2022/10/29 01:55:30;;;;;;;6.53;2.50;;;10.80;99.90;;;;;;5074976;28;20527;-48
2022/10/29 01:57:57;;;;;;;4.30;2.63;;;10.40;99.90;;;;;;5074787;28;20452;-48
2022/10/29 02:00:24;;;;;;;5.53;2.50;;;10.30;99.90;;;;;;5074491;28;20483;-47
2022/10/29 02:03:15;;;;;;;6.57;2.83;;;10.60;99.90;;;;;;5074657;28;20536;-44
2022/10/29 02:05:52;;;;;;;7.07;3.03;;;10.10;99.90;;;;;;5074796;28;21025;-49
2022/10/29 02:08:28;;;;;;;4.20;2.93;;;10.10;99.90;;;;;;5074521;28;20433;-47
2022/10/29 02:11:01;;;;;;;6.57;2.23;;;10.50;99.90;;;;;;5074502;28;20826;-47
2022/10/29 02:13:32;;;;;;;5.50;2.40;;;10.80;99.90;;;;;;5074056;28;20441;-47
2022/10/29 02:16:02;;;;;;;3.33;2.30;;;11.00;99.90;;;;;;5075043;28;20441;-47
2022/10/29 02:18:30;;;;;;;9.37;3.53;;;10.70;99.90;;;;;;5074431;28;20524;-48
2022/10/29 02:20:57;;;;;;;11.27;2.50;;;10.70;99.90;;;;;;5074483;28;20579;-47
2022/10/29 02:23:24;;;;;;;8.23;2.70;;;10.50;99.90;;;;;;5074380;28;20519;-46
2022/10/29 02:25:51;;;;;;;4.47;2.47;;;10.50;99.90;;;;;;5074420;28;20531;-49
2022/10/29 02:28:18;;;;;;;5.20;3.30;;;10.60;99.90;;;;;;5074576;28;20906;-46
2022/10/29 02:30:44;;;;;;;7.17;3.53;;;10.90;99.90;;;;;;5074386;28;20544;-46
2022/10/29 02:33:11;;;;;;;7.00;2.50;;;11.00;99.90;;;;;;5073867;28;20444;-49
2022/10/29 02:35:39;;;;;;;7.23;2.40;;;11.10;99.90;;;;;;5073999;28;20452;-47
2022/10/29 02:38:06;;;;;;;7.87;2.30;;;11.10;99.90;;;;;;5073457;28;20531;-47
2022/10/29 02:40:33;;;;;;;4.20;2.50;;;11.10;99.90;;;;;;5073789;28;20570;-47
2022/10/29 02:43:00;;;;;;;9.53;2.80;;;11.10;99.90;;;;;;5073909;28;20535;-49
2022/10/29 02:45:27;;;;;;;5.47;2.50;;;11.20;99.90;;;;;;5073891;28;20445;-46
2022/10/29 02:47:54;;;;;;;4.70;2.03;;;11.20;99.90;;;;;;5073915;28;20500;-46
2022/10/29 02:50:20;;;;;;;8.50;2.27;;;10.90;99.90;;;;;;5073092;28;20460;-49
2022/10/29 02:52:49;;;;;;;8.00;2.47;;;11.10;99.90;;;;;;5074230;28;20452;-47
2022/10/29 02:55:16;;;;;;;5.63;2.00;;;10.80;99.90;;;;;;5073567;28;20536;-46
2022/10/29 02:57:43;;;;;;;5.80;2.20;;;10.20;99.90;;;;;;5073711;28;20451;-46
2022/10/29 03:00:12;;;;;;;5.13;2.93;;;10.40;99.90;;;;;;5073539;28;20480;-46
2022/10/29 03:02:39;;;;;;;8.40;2.43;;;10.50;99.90;;;;;;5073418;28;20445;-47
2022/10/29 03:05:07;;;;;;;5.00;2.27;;;10.70;99.90;;;;;;5073538;28;20967;-48
2022/10/29 03:07:35;;;;;;;6.47;2.43;;;10.80;99.90;;;;;;5073571;28;20467;-49
2022/10/29 03:10:04;;;;;;;5.17;2.43;;;11.00;99.90;;;;;;5073366;28;20446;-46
2022/10/29 03:12:31;;;;;;;5.63;2.13;;;11.00;99.90;;;;;;5073418;28;20543;-46
2022/10/29 03:14:58;;;;;;;6.53;2.80;;;11.10;99.90;;;;;;5073197;28;20532;-49
2022/10/29 03:17:25;;;;;;;6.80;2.13;;;11.20;99.90;;;;;;5073219;28;20528;-47
2022/10/29 03:19:52;;;;;;;4.83;2.07;;;11.00;99.90;;;;;;5073206;28;20473;-47
2022/10/29 03:22:19;;;;;;;5.60;2.23;;;10.90;99.90;;;;;;5073412;28;20487;-47
2022/10/29 03:24:46;;;;;;;3.40;2.53;;;11.00;99.90;;;;;;5073205;28;20521;-47
2022/10/29 03:27:14;;;;;;;7.43;2.40;;;11.10;99.90;;;;;;5073149;28;20540;-49
2022/10/29 03:29:41;;;;;;;6.93;2.67;;;11.20;99.90;;;;;;5073081;28;20439;-47
2022/10/29 03:32:07;;;;;;;7.80;2.33;;;11.20;99.90;;;;;;5073045;28;20472;-48
2022/10/29 03:34:34;;;;;;;9.13;2.87;;;11.10;99.90;;;;;;5072790;28;20532;-47
2022/10/29 03:37:01;;;;;;;7.17;3.47;;;11.20;99.90;;;;;;5073142;28;21028;-48
2022/10/29 03:39:28;;;;;;;5.70;2.70;;;11.10;99.90;;;;;;5072930;28;20981;-47
2022/10/29 03:41:55;;;;;;;5.30;2.60;;;10.80;99.90;;;;;;5072551;28;20492;-48
2022/10/29 03:44:23;;;;;;;5.77;2.73;;;10.60;99.90;;;;;;5072729;28;20701;-48
2022/10/29 03:46:50;;;;;;;4.13;2.37;;;10.50;99.90;;;;;;5072670;28;20457;-47
2022/10/29 03:49:17;;;;;;;4.83;2.23;;;10.30;99.90;;;;;;5071862;28;20639;-51
2022/10/29 03:51:43;;;;;;;3.97;2.20;;;10.20;99.90;;;;;;5072636;28;20508;-48
2022/10/29 03:54:10;;;;;;;4.23;2.47;;;10.60;99.90;;;;;;5072348;28;20524;-49
2022/10/29 03:56:37;;;;;;;6.40;3.27;;;10.70;99.90;;;;;;5072716;28;20491;-49
2022/10/29 03:59:04;;;;;;;4.00;2.20;;;10.70;99.90;;;;;;5072812;28;20441;-48
2022/10/29 04:01:33;;;;;;;6.33;2.80;;;10.80;99.90;;;;;;5072374;28;20484;-48
2022/10/29 04:04:00;;;;;;;8.67;3.10;;;11.00;99.90;;;;;;5072559;28;20465;-49
2022/10/29 04:06:27;;;;;;;7.50;1.90;;;11.00;99.90;;;;;;5072000;28;20481;-49
2022/10/29 04:08:55;;;;;;;7.47;2.97;;;11.00;99.90;;;;;;5072608;28;20524;-49
2022/10/29 04:11:22;;;;;;;6.23;3.20;;;10.80;99.90;;;;;;5072420;28;20476;-51
2022/10/29 04:13:52;;;;;;;9.00;3.30;;;10.50;99.90;;;;;;5072080;28;20966;-48
2022/10/29 04:16:19;;;;;;;4.63;3.17;;;9.90;99.90;;;;;;5072073;28;20899;-49
2022/10/29 04:18:48;;;;;;;5.67;2.93;;;9.80;99.90;;;;;;5072068;28;20527;-48
2022/10/29 04:21:16;;;;;;;9.73;3.73;;;10.10;99.90;;;;;;5071716;28;20504;-49
2022/10/29 04:23:43;;;;;;;10.77;3.73;;;10.40;99.90;;;;;;5071968;28;20447;-49
2022/10/29 04:26:10;;;;;;;6.77;4.10;;;10.60;99.90;;;;;;5072055;28;20550;-48
2022/10/29 04:28:36;;;;;;;6.93;3.83;;;10.70;99.90;;;;;;5071857;28;21005;-51
2022/10/29 04:31:05;;;;;;;14.43;3.53;;;10.80;99.90;;;;;;5072002;28;20463;-49
2022/10/29 04:33:31;;;;;;;6.33;3.50;;;11.00;99.90;;;;;;5071514;28;20524;-48
2022/10/29 04:36:00;;;;;;;5.33;3.63;;;11.00;99.90;;;;;;5072077;28;20440;-48
2022/10/29 04:38:26;;;;;;;16.43;13.23;;;10.80;99.90;;;;;;5072063;28;20452;-48
2022/10/29 04:40:57;;;;;;;14.17;9.47;;;10.50;99.90;;;;;;5071903;28;20564;-49
2022/10/29 04:43:23;;;;;;;6.50;5.07;;;10.60;99.90;;;;;;5071088;28;20449;-49
2022/10/29 04:45:52;;;;;;;10.63;8.20;;;10.60;99.90;;;;;;5071638;28;20441;-49
2022/10/29 04:48:19;;;;;;;11.10;9.30;;;10.80;99.90;;;;;;5071449;28;20448;-49
2022/10/29 04:50:46;;;;;;;10.43;6.30;;;10.90;99.90;;;;;;5070972;28;20571;-49
2022/10/29 04:53:15;;;;;;;6.73;4.03;;;10.80;99.90;;;;;;5071060;28;20449;-48
2022/10/29 04:55:42;;;;;;;6.47;4.30;;;10.60;99.90;;;;;;5071565;28;20815;-48
2022/10/29 04:58:14;;;;;;;7.07;4.43;;;10.70;99.90;;;;;;5071581;28;20529;-49
2022/10/29 05:00:41;;;;;;;10.30;4.50;;;10.80;99.90;;;;;;5071661;28;20568;-49
2022/10/29 05:03:08;;;;;;;5.00;3.73;;;10.80;99.90;;;;;;5071360;28;21010;-49
2022/10/29 05:05:36;;;;;;;5.67;3.50;;;11.00;99.90;;;;;;5071438;28;20521;-49
2022/10/29 05:08:05;;;;;;;4.53;3.77;;;11.00;99.90;;;;;;5071270;28;20524;-49
2022/10/29 05:10:35;;;;;;;9.97;3.70;;;10.40;99.90;;;;;;5071231;28;20564;-49
2022/10/29 05:13:05;;;;;;;12.30;3.47;;;10.30;99.90;;;;;;5071554;28;20523;-48
2022/10/29 05:15:32;;;;;;;11.30;3.70;;;10.30;99.90;;;;;;5071536;28;20445;-48
2022/10/29 05:18:00;;;;;;;8.00;3.73;;;10.50;99.90;;;;;;5071187;28;20535;-49
2022/10/29 05:20:27;;;;;;;7.47;4.37;;;10.70;99.90;;;;;;5071009;28;20479;-48
2022/10/29 05:22:59;;;;;;;8.13;3.90;;;10.70;99.90;;;;;;5070926;28;20759;-51
2022/10/29 05:25:26;;;;;;;12.73;5.33;;;10.60;99.90;;;;;;5071229;28;20437;-48
2022/10/29 05:28:02;;;;;;;9.70;5.53;;;9.80;99.90;;;;;;5071023;28;20448;-48
2022/10/29 05:30:29;;;;;;;9.33;5.40;;;9.60;99.90;;;;;;5071323;28;20498;-52
2022/10/29 05:32:56;;;;;;;10.90;5.73;;;9.90;99.90;;;;;;5070859;28;20447;-50
2022/10/29 05:35:22;;;;;;;7.00;4.13;;;9.60;99.90;;;;;;5071149;28;20929;-48
2022/10/29 05:37:53;;;;;;;6.40;3.50;;;9.60;99.90;;;;;;5071023;28;20531;-48
2022/10/29 05:40:20;;;;;;;9.37;3.47;;;9.80;99.90;;;;;;5071250;28;20472;-48
2022/10/29 05:42:47;;;;;;;7.37;3.57;;;10.10;99.90;;;;;;5071001;28;20527;-49
2022/10/29 05:45:15;;;;;;;13.70;6.63;;;10.40;99.90;;;;;;5071037;28;20468;-51
2022/10/29 05:47:42;;;;;;;7.10;3.80;;;10.30;99.90;;;;;;5070962;28;20947;-48
2022/10/29 05:50:10;;;;;;;7.10;3.87;;;9.60;99.90;;;;;;5070461;28;20531;-48
2022/10/29 05:52:38;;;;;;;8.73;4.27;;;9.30;99.90;;;;;;5070879;28;20535;-49
2022/10/29 05:55:05;;;;;;;5.30;3.73;;;9.60;99.90;;;;;;5070693;28;20528;-50
2022/10/29 05:57:32;;;;;;;11.20;6.90;;;10.00;99.90;;;;;;5071054;28;20447;-50
2022/10/29 05:59:59;;;;;;;28.17;19.17;;;10.00;99.90;;;;;;5070977;28;20523;-49
2022/10/29 06:02:27;;;;;;;27.63;19.60;;;9.70;99.90;;;;;;5070595;28;20973;-48
2022/10/29 06:04:54;;;;;;;10.80;7.27;;;9.90;99.90;;;;;;5070750;28;20543;-48
2022/10/29 06:07:21;;;;;;;9.97;5.80;;;10.10;99.90;;;;;;5070891;28;20451;-50
2022/10/29 06:09:48;;;;;;;8.27;4.70;;;9.70;99.90;;;;;;5070806;28;20544;-49
2022/10/29 06:12:15;;;;;;;11.07;4.03;;;9.40;99.90;;;;;;5072161;28;20543;-46
2022/10/29 06:14:42;;;;;;;8.73;4.40;;;9.60;99.90;;;;;;5072605;28;20476;-50
2022/10/29 06:17:08;;;;;;;6.43;4.40;;;9.90;99.90;;;;;;5074496;28;20530;-48
2022/10/29 06:19:37;;;;;;;7.73;4.30;;;10.10;99.90;;;;;;5074107;28;20532;-48
2022/10/29 06:22:04;;;;;;;11.20;6.60;;;10.10;99.90;;;;;;5074183;28;20558;-48
2022/10/29 06:24:31;;;;;;;9.43;6.40;;;10.00;99.90;;;;;;5074055;28;20441;-48
2022/10/29 06:26:58;;;;;;;10.27;6.70;;;9.90;99.90;;;;;;5074352;28;20527;-50
2022/10/29 06:29:25;;;;;;;12.90;6.53;;;9.50;99.90;;;;;;5074064;28;20798;-48
2022/10/29 06:31:52;;;;;;;7.47;5.33;;;9.70;99.90;;;;;;5074170;28;20635;-51
2022/10/29 06:34:19;;;;;;;6.90;5.03;;;9.90;99.90;;;;;;5073974;28;21008;-50
2022/10/29 06:36:47;;;;;;;16.63;5.90;;;10.20;99.90;;;;;;5074422;28;20535;-49
2022/10/29 06:39:14;;;;;;;8.43;5.10;;;10.20;99.90;;;;;;5074001;28;20539;-49
2022/10/29 06:41:40;;;;;;;8.40;6.57;;;10.10;99.90;;;;;;5074060;28;20487;-49
2022/10/29 06:44:07;;;;;;;7.63;3.97;;;10.20;99.90;;;;;;5073683;28;20441;-50
2022/10/29 06:46:34;;;;;;;6.23;4.20;;;10.20;99.90;;;;;;5074028;28;20451;-49
2022/10/29 06:49:02;;;;;;;11.20;5.47;;;10.00;99.90;;;;;;5073902;28;20779;-48
2022/10/29 06:51:29;;;;;;;11.53;7.10;;;9.90;99.90;;;;;;5073193;28;20472;-49
2022/10/29 06:53:57;;;;;;;7.00;5.03;;;9.90;99.90;;;;;;5073496;28;20441;-48
2022/10/29 06:56:24;;;;;;;10.50;6.70;;;10.30;99.90;;;;;;5073904;28;20445;-48
2022/10/29 06:58:50;;;;;;;11.47;6.77;;;10.40;99.90;;;;;;5073628;28;20445;-50
2022/10/29 07:01:17;;;;;;;13.60;8.47;;;10.30;99.90;;;;;;5073469;28;20567;-48
2022/10/29 07:03:44;;;;;;;15.33;7.57;;;10.20;99.90;;;;;;5073516;28;20452;-48
2022/10/29 07:06:11;;;;;;;13.00;7.83;;;9.90;99.90;;;;;;5073887;28;20549;-49
2022/10/29 07:08:38;;;;;;;17.63;7.83;;;9.80;99.90;;;;;;5073320;28;20539;-49
2022/10/29 07:11:06;;;;;;;15.63;8.17;;;9.90;99.90;;;;;;5073586;28;20556;-48
2022/10/29 07:13:33;;;;;;;10.53;7.90;;;9.80;99.90;;;;;;5073198;28;20457;-48
2022/10/29 07:16:00;;;;;;;7.43;6.30;;;9.90;99.90;;;;;;5073360;28;20549;-50
2022/10/29 07:18:26;;;;;;;11.00;4.93;;;10.10;99.90;;;;;;5072591;28;20544;-48
2022/10/29 07:20:53;;;;;;;14.27;6.40;;;10.40;99.90;;;;;;5071488;28;20477;-48
2022/10/29 07:23:20;;;;;;;8.97;6.30;;;10.50;99.90;;;;;;5072062;28;20530;-49
2022/10/29 07:25:47;;;;;;;8.40;5.40;;;10.60;99.90;;;;;;5072256;28;20528;-49
2022/10/29 07:28:16;;;;;;;14.93;7.07;;;10.70;99.90;;;;;;5073224;28;20528;-48
2022/10/29 07:30:44;;;;;;;11.07;5.93;;;10.80;99.90;;;;;;5073334;28;20498;-45
2022/10/29 07:33:11;;;;;;;10.43;5.90;;;10.90;99.90;;;;;;5072331;28;20530;-49
2022/10/29 07:35:38;;;;;;;12.47;8.07;;;11.00;99.90;;;;;;5072671;28;20531;-48
2022/10/29 07:38:06;;;;;;;10.00;7.20;;;11.00;99.90;;;;;;5072882;28;20964;-49
2022/10/29 07:40:33;;;;;;;12.23;9.90;;;11.10;99.90;;;;;;5072693;28;20560;-51
2022/10/29 07:43:00;;;;;;;17.63;11.17;;;11.10;99.90;;;;;;5072256;28;20447;-49
2022/10/29 07:45:29;;;;;;;15.43;11.70;;;11.00;99.90;;;;;;5072514;28;20451;-50
2022/10/29 07:48:00;;;;;;;15.37;13.63;;;11.10;99.90;;;;;;5072769;28;20445;-48
2022/10/29 07:50:27;;;;;;;19.47;17.43;;;11.00;99.90;;;;;;5071827;28;20957;-48
2022/10/29 07:52:54;;;;;;;23.93;17.30;;;10.80;99.90;;;;;;5078433;22;20582;-51
2022/10/29 07:55:21;;;;;;;16.30;14.73;;;11.00;99.90;;;;;;5052623;28;21010;-50
2022/10/29 07:57:57;;;;;;;12.70;10.73;;;11.20;99.90;;;;;;5052565;28;21010;-53
2022/10/29 08:00:23;;;;;;;15.33;8.40;;;11.40;99.90;;;;;;5052624;28;20541;-50
2022/10/29 08:02:53;;;;;;;15.20;12.67;;;11.50;99.90;;;;;;5068826;28;20560;-50
2022/10/29 08:05:20;;;;;;;21.13;13.53;;;11.60;99.90;;;;;;5072324;28;20442;-50
2022/10/29 08:07:47;;;;;;;14.37;12.50;;;11.50;99.90;;;;;;5072492;28;20535;-51
2022/10/29 08:10:14;;;;;;;15.50;11.30;;;11.60;99.90;;;;;;5072583;28;20451;-51
2022/10/29 08:12:48;;;;;;;14.80;11.43;;;11.60;99.90;;;;;;5072102;28;21006;-51
2022/10/29 08:15:15;;;;;;;20.40;14.87;;;11.60;99.90;;;;;;5072196;28;20449;-50
2022/10/29 08:17:41;;;;;;;18.37;14.37;;;11.60;99.90;;;;;;5072155;28;20442;-53
2022/10/29 08:20:11;;;;;;;25.23;15.97;;;11.70;99.90;;;;;;5072056;28;20532;-51
2022/10/29 08:22:37;;;;;;;25.03;16.10;;;11.80;99.90;;;;;;5072231;28;20722;-51
2022/10/29 08:25:05;;;;;;;16.93;11.97;;;11.80;99.90;;;;;;5071618;28;20487;-51
2022/10/29 08:27:32;;;;;;;18.87;11.90;;;11.80;99.90;;;;;;5071947;28;20444;-53
2022/10/29 08:29:59;;;;;;;13.87;9.67;;;11.70;99.90;;;;;;5071782;28;20536;-51
2022/10/29 08:32:26;;;;;;;22.53;12.00;;;11.50;99.90;;;;;;5071750;28;20461;-50
2022/10/29 08:34:53;;;;;;;21.67;14.23;;;11.40;99.90;;;;;;5070823;28;20475;-52
2022/10/29 08:37:21;;;;;;;16.57;13.60;;;11.10;99.90;;;;;;5071834;28;20882;-50
2022/10/29 08:39:48;;;;;;;18.97;14.13;;;11.10;99.90;;;;;;5071839;28;20544;-51
2022/10/29 08:42:29;;;;;;;16.20;14.10;;;10.90;99.90;;;;;;5071414;28;20571;-50
2022/10/29 08:45:21;;;;;;;17.40;10.70;;;10.90;99.90;;;;;;5071510;28;20447;-51
2022/10/29 08:48:11;;;;;;;18.10;9.40;;;10.90;99.90;;;;;;5071805;28;20828;-51
2022/10/29 08:50:43;;;;;;;11.37;7.80;;;11.00;99.90;;;;;;5069851;28;20441;-52
2022/10/29 08:53:17;;;;;;;16.77;8.27;;;11.30;99.90;;;;;;5069641;28;20495;-52
2022/10/29 08:55:45;;;;;;;14.30;9.37;;;11.50;99.90;;;;;;5069963;28;20795;-52
2022/10/29 08:58:23;;;;;;;18.70;11.17;;;11.60;99.90;;;;;;5070407;28;20446;-53
2022/10/29 09:00:55;;;;;;;11.93;10.00;;;11.30;99.90;;;;;;5070629;28;20449;-51
2022/10/29 09:03:23;;;;;;;11.10;9.43;;;11.30;99.90;;;;;;5069567;28;20440;-51
2022/10/29 09:06:03;;;;;;;16.30;8.20;;;11.40;99.90;;;;;;5069291;28;20872;-51
2022/10/29 09:08:47;;;;;;;8.50;6.87;;;11.60;99.90;;;;;;5069549;28;20520;-50
2022/10/29 09:11:28;;;;;;;16.17;5.83;;;11.70;99.90;;;;;;5069763;28;20827;-51
2022/10/29 09:14:07;;;;;;;15.77;6.50;;;12.00;99.90;;;;;;5070420;28;20541;-54
2022/10/29 09:16:42;;;;;;;11.13;6.67;;;12.10;99.90;;;;;;5069805;28;20526;-51
2022/10/29 09:19:21;;;;;;;8.47;5.47;;;12.20;99.90;;;;;;5071357;28;20476;-53
2022/10/29 09:21:56;;;;;;;13.13;6.60;;;12.30;99.90;;;;;;5070954;28;20480;-52
2022/10/29 09:24:33;;;;;;;17.57;9.80;;;12.50;99.90;;;;;;5068847;28;20449;-51
2022/10/29 09:27:05;;;;;;;12.07;7.83;;;12.70;99.90;;;;;;5068843;28;20447;-51
2022/10/29 09:29:56;;;;;;;62.10;16.80;;;13.00;99.90;;;;;;5069455;28;20442;-51
2022/10/29 09:32:28;;;;;;;30.57;8.07;;;13.10;99.90;;;;;;5069915;28;20465;-51
2022/10/29 09:35:00;;;;;;;9.70;6.00;;;13.20;99.90;;;;;;5069025;28;20542;-51
2022/10/29 09:37:35;;;;;;;10.43;5.43;;;13.40;99.90;;;;;;5067556;28;20438;-53
2022/10/29 09:40:06;;;;;;;8.50;5.13;;;13.50;99.90;;;;;;5071371;28;20528;-50
2022/10/29 09:42:38;;;;;;;7.57;3.83;;;13.50;99.90;;;;;;5052749;28;20476;-53
2022/10/29 09:45:08;;;;;;;8.00;3.13;;;13.70;99.90;;;;;;5050420;28;20447;-50
2022/10/29 09:47:43;;;;;;;8.57;4.20;;;13.90;99.90;;;;;;5052377;28;20528;-50
2022/10/29 09:50:19;;;;;;;8.43;3.90;;;14.00;99.90;;;;;;5053110;28;20531;-51
2022/10/29 09:52:48;;;;;;;5.90;3.23;;;14.10;99.90;;;;;;5053335;28;20470;-52
2022/10/29 09:55:22;;;;;;;7.10;4.23;;;14.10;99.90;;;;;;5052993;28;20443;-51
2022/10/29 09:57:49;;;;;;;9.10;3.17;;;14.10;99.90;;;;;;5053139;28;20448;-51
2022/10/29 10:00:21;;;;;;;7.87;3.67;;;14.10;99.90;;;;;;5053933;28;20437;-53
2022/10/29 10:02:53;;;;;;;11.60;3.53;;;14.10;99.90;;;;;;5053506;28;20926;-51
2022/10/29 10:05:24;;;;;;;5.30;3.53;;;14.10;99.90;;;;;;5054965;28;20479;-50
2022/10/29 10:08:14;;;;;;;5.30;3.27;;;14.00;99.90;;;;;;5054473;28;20920;-51
2022/10/29 10:10:52;;;;;;;39.13;9.97;;;14.00;99.90;;;;;;5054492;28;20894;-52
2022/10/29 10:13:20;;;;;;;13.93;4.47;;;14.00;99.90;;;;;;5073615;28;20539;-53
2022/10/29 10:15:52;;;;;;;6.97;3.00;;;14.30;99.90;;;;;;5073014;28;20494;-51
2022/10/29 10:18:20;;;;;;;10.97;4.50;;;14.70;99.90;;;;;;5072998;28;20440;-50
2022/10/29 10:20:59;;;;;;;9.47;3.40;;;14.80;99.90;;;;;;5054055;28;20540;-53
2022/10/29 10:23:27;;;;;;;13.50;4.63;;;14.70;99.90;;;;;;5054801;28;21025;-53
2022/10/29 10:25:56;;;;;;;7.63;3.70;;;14.70;99.90;;;;;;5054039;28;20441;-53
2022/10/29 10:28:25;;;;;;;6.10;3.30;;;14.90;99.90;;;;;;5054099;28;20544;-51
2022/10/29 10:31:09;;;;;;;6.40;4.40;;;14.80;99.90;;;;;;5053543;28;20547;-51
2022/10/29 10:33:44;;;;;;;8.30;3.90;;;14.90;99.90;;;;;;5071340;28;20448;-52
2022/10/29 10:36:11;;;;;;;7.03;2.50;;;15.30;99.90;;;;;;5072752;28;20443;-51
2022/10/29 10:38:40;;;;;;;6.43;3.33;;;15.40;99.90;;;;;;5073106;28;20443;-51
2022/10/29 10:41:10;;;;;;;12.77;4.87;;;15.40;99.90;;;;;;5073268;28;20536;-51
2022/10/29 10:43:41;;;;;;;13.80;4.87;;;15.20;99.90;;;;;;5073087;28;20579;-51
2022/10/29 10:46:15;;;;;;;6.37;4.07;;;15.30;99.90;;;;;;5073707;28;20532;-51
2022/10/29 10:48:42;;;;;;;9.67;4.90;;;15.50;99.90;;;;;;5074125;28;20817;-51
2022/10/29 10:51:15;;;;;;;7.20;3.83;;;15.60;99.90;;;;;;5073294;28;20535;-51
2022/10/29 10:53:42;;;;;;;7.17;4.03;;;15.50;99.90;;;;;;5073217;28;20433;-51
2022/10/29 10:56:18;;;;;;;6.30;3.50;;;15.70;99.90;;;;;;5073895;28;20448;-51
2022/10/29 10:58:51;;;;;;;5.03;2.63;;;15.70;99.90;;;;;;5071819;28;20489;-51
2022/10/29 11:01:24;;;;;;;10.70;3.80;;;15.80;99.90;;;;;;5054239;28;20465;-51
2022/10/29 11:03:58;;;;;;;16.73;4.77;;;15.70;99.90;;;;;;5053589;28;20992;-51
2022/10/29 11:06:28;;;;;;;9.63;4.30;;;15.80;99.90;;;;;;5053634;28;20454;-51
2022/10/29 11:09:00;;;;;;;14.10;4.83;;;16.00;99.90;;;;;;5053959;28;20449;-51
2022/10/29 11:11:32;;;;;;;7.23;4.30;;;15.90;99.90;;;;;;5052938;28;21012;-53
2022/10/29 11:14:03;;;;;;;11.30;4.23;;;16.00;99.90;;;;;;5052561;28;20448;-53
2022/10/29 11:16:37;;;;;;;7.97;4.07;;;16.00;99.90;;;;;;5052871;28;20503;-51
2022/10/29 11:19:12;;;;;;;8.30;3.77;;;15.90;99.90;;;;;;5053552;28;20481;-51
2022/10/29 11:21:42;;;;;;;13.77;6.60;;;16.00;99.90;;;;;;5053356;28;20465;-51
2022/10/29 11:24:13;;;;;;;10.17;3.50;;;16.10;99.90;;;;;;5053161;28;20536;-50
2022/10/29 11:26:48;;;;;;;6.73;3.30;;;16.00;99.90;;;;;;5052996;28;20444;-51
2022/10/29 11:29:21;;;;;;;9.57;4.00;;;16.20;99.90;;;;;;5053202;28;20544;-50
2022/10/29 11:31:58;;;;;;;7.33;3.53;;;16.30;99.90;;;;;;5062349;28;20560;-53
2022/10/29 11:34:38;;;;;;;10.10;3.33;;;16.40;99.90;;;;;;5072798;28;20456;-51
2022/10/29 11:37:16;;;;;;;8.67;3.70;;;16.30;99.90;;;;;;5072840;28;20484;-51
2022/10/29 11:39:48;;;;;;;8.17;3.33;;;16.40;99.90;;;;;;5072926;28;20524;-52
2022/10/29 11:42:16;;;;;;;6.40;3.60;;;16.50;99.90;;;;;;5072588;28;20476;-51
2022/10/29 11:44:43;;;;;;;13.27;4.17;;;16.50;99.90;;;;;;5072572;28;20527;-51
2022/10/29 11:47:21;;;;;;;4.63;3.57;;;16.50;99.90;;;;;;5072482;28;20441;-52
2022/10/29 11:50:02;;;;;;;9.10;3.70;;;16.50;99.90;;;;;;5072641;28;20444;-51
2022/10/29 11:52:33;;;;;;;5.10;3.00;;;16.40;99.90;;;;;;5072333;28;20472;-51
2022/10/29 11:55:12;;;;;;;10.13;4.20;;;16.60;99.90;;;;;;5072177;28;20956;-51
2022/10/29 11:57:45;;;;;;;8.33;3.60;;;16.60;99.90;;;;;;5072296;28;20527;-50
2022/10/29 12:00:15;;;;;;;8.90;3.80;;;16.70;99.90;;;;;;5057346;28;20515;-53
2022/10/29 12:03:27;;;;;;;8.33;3.63;;;16.80;99.90;;;;;;5052208;28;20474;-51
2022/10/29 12:06:03;;;;;;;9.17;3.37;;;16.80;99.90;;;;;;5025641;28;20446;-51
2022/10/29 12:08:44;;;;;;;7.33;3.97;;;16.80;99.90;;;;;;5063166;28;20451;-52
2022/10/29 12:11:19;;;;;;;5.57;3.43;;;16.80;99.90;;;;;;5071407;28;20547;-54
2022/10/29 12:14:00;;;;;;;9.60;3.50;;;16.60;99.90;;;;;;5071498;28;20458;-51
2022/10/29 12:16:39;;;;;;;6.60;4.57;;;16.60;99.90;;;;;;5070692;28;20531;-52
2022/10/29 12:19:15;;;;;;;7.37;3.23;;;16.70;99.90;;;;;;5070245;28;20933;-51
2022/10/29 12:21:51;;;;;;;9.93;3.70;;;16.80;99.90;;;;;;5070398;28;20463;-51
2022/10/29 12:24:30;;;;;;;8.93;4.00;;;16.80;99.90;;;;;;5069658;28;20480;-52
2022/10/29 12:27:04;;;;;;;6.90;4.00;;;16.90;99.90;;;;;;5071658;28;20447;-51
2022/10/29 12:29:43;;;;;;;6.33;3.73;;;16.90;99.90;;;;;;5071422;28;20526;-51
2022/10/29 12:32:19;;;;;;;9.60;4.37;;;17.20;99.90;;;;;;5057356;28;20479;-51
2022/10/29 12:34:51;;;;;;;8.27;3.43;;;17.20;99.90;;;;;;5050339;28;20805;-51
2022/10/29 12:37:25;;;;;;;7.60;3.83;;;17.20;99.90;;;;;;5050682;28;20513;-51
2022/10/29 12:39:57;;;;;;;11.07;4.73;;;17.40;99.90;;;;;;5051392;28;20530;-51
2022/10/29 12:42:25;;;;;;;10.80;5.33;;;17.40;99.90;;;;;;5050834;28;20474;-51
2022/10/29 12:45:06;;;;;;;7.73;4.13;;;17.30;99.90;;;;;;5051005;28;20449;-51
2022/10/29 12:47:38;;;;;;;8.73;3.90;;;17.30;99.90;;;;;;5051297;28;21051;-51
2022/10/29 12:50:18;;;;;;;5.50;3.50;;;17.30;99.90;;;;;;5051460;28;20454;-53
2022/10/29 12:52:49;;;;;;;13.10;4.93;;;17.30;99.90;;;;;;5051341;28;20537;-53
2022/10/29 12:55:17;;;;;;;74.63;12.50;;;17.30;99.90;;;;;;5051164;28;20524;-51
2022/10/29 12:57:44;;;;;;;11.50;4.40;;;17.30;99.90;;;;;;5060449;28;20522;-52
2022/10/29 13:00:44;;;;;;;7.87;4.40;;;17.20;99.90;;;;;;5071560;28;20439;-51